sensor_id;sensor_type;location;lat;lon;timestamp;P1;durP1;ratioP1;P2;durP2;ratioP2
8088;SDS011;57635;49.194;12.104;2023-06-24T00:01:01;4.23;;;3.97;;
8088;SDS011;57635;49.194;12.104;2023-06-24T00:03:29;4.00;;;3.70;;
8088;SDS011;57635;49.194;12.104;2023-06-24T00:05:58;4.33;;;4.03;;
8088;SDS011;57635;49.194;12.104;2023-06-24T00:08:29;3.90;;;3.60;;
8088;SDS011;57635;49.194;12.104;2023-06-24T00:11:00;4.10;;;3.80;;
8088;SDS011;57635;49.194;12.104;2023-06-24T00:13:28;3.33;;;3.13;;
8088;SDS011;57635;49.194;12.104;2023-06-24T00:15:56;4.17;;;3.87;;
8088;SDS011;57635;49.194;12.104;2023-06-24T00:18:27;4.37;;;4.17;;
8088;SDS011;57635;49.194;12.104;2023-06-24T00:20:55;4.20;;;3.80;;
8088;SDS011;57635;49.194;12.104;2023-06-24T00:23:23;3.93;;;3.63;;
8088;SDS011;57635;49.194;12.104;2023-06-24T00:25:52;4.03;;;3.70;;
8088;SDS011;57635;49.194;12.104;2023-06-24T00:28:20;3.93;;;3.73;;
8088;SDS011;57635;49.194;12.104;2023-06-24T00:30:48;4.80;;;4.07;;
8088;SDS011;57635;49.194;12.104;2023-06-24T00:33:19;4.33;;;4.03;;
8088;SDS011;57635;49.194;12.104;2023-06-24T00:35:48;4.83;;;3.90;;
8088;SDS011;57635;49.194;12.104;2023-06-24T00:38:16;3.97;;;3.70;;
8088;SDS011;57635;49.194;12.104;2023-06-24T00:40:44;4.07;;;3.87;;
8088;SDS011;57635;49.194;12.104;2023-06-24T00:43:12;3.70;;;3.40;;
8088;SDS011;57635;49.194;12.104;2023-06-24T00:45:40;4.27;;;4.00;;
8088;SDS011;57635;49.194;12.104;2023-06-24T00:48:08;6.67;;;4.33;;
8088;SDS011;57635;49.194;12.104;2023-06-24T00:50:36;4.17;;;3.97;;
8088;SDS011;57635;49.194;12.104;2023-06-24T00:53:09;5.70;;;4.13;;
8088;SDS011;57635;49.194;12.104;2023-06-24T00:55:38;4.50;;;4.20;;
8088;SDS011;57635;49.194;12.104;2023-06-24T00:58:06;4.10;;;3.80;;
8088;SDS011;57635;49.194;12.104;2023-06-24T01:00:34;4.27;;;3.97;;
8088;SDS011;57635;49.194;12.104;2023-06-24T01:03:02;4.87;;;4.10;;
8088;SDS011;57635;49.194;12.104;2023-06-24T01:05:31;4.40;;;4.00;;
8088;SDS011;57635;49.194;12.104;2023-06-24T01:08:02;4.53;;;4.23;;
8088;SDS011;57635;49.194;12.104;2023-06-24T01:10:31;5.13;;;4.73;;
8088;SDS011;57635;49.194;12.104;2023-06-24T01:12:59;4.97;;;4.47;;
8088;SDS011;57635;49.194;12.104;2023-06-24T01:15:26;5.00;;;4.50;;
8088;SDS011;57635;49.194;12.104;2023-06-24T01:17:56;5.93;;;4.77;;
8088;SDS011;57635;49.194;12.104;2023-06-24T01:20:27;4.90;;;4.60;;
8088;SDS011;57635;49.194;12.104;2023-06-24T01:25:57;4.93;;;4.33;;
8088;SDS011;57635;49.194;12.104;2023-06-24T01:28:37;4.83;;;4.53;;
8088;SDS011;57635;49.194;12.104;2023-06-24T01:31:29;5.17;;;4.80;;
8088;SDS011;57635;49.194;12.104;2023-06-24T01:34:02;4.87;;;4.50;;
8088;SDS011;57635;49.194;12.104;2023-06-24T01:36:33;5.73;;;5.33;;
8088;SDS011;57635;49.194;12.104;2023-06-24T01:39:02;5.67;;;5.17;;
8088;SDS011;57635;49.194;12.104;2023-06-24T01:41:31;5.20;;;4.73;;
8088;SDS011;57635;49.194;12.104;2023-06-24T01:44:01;5.50;;;5.00;;
8088;SDS011;57635;49.194;12.104;2023-06-24T01:46:30;7.00;;;4.97;;
8088;SDS011;57635;49.194;12.104;2023-06-24T01:48:59;5.47;;;5.07;;
8088;SDS011;57635;49.194;12.104;2023-06-24T01:51:29;5.53;;;5.13;;
8088;SDS011;57635;49.194;12.104;2023-06-24T01:54:00;5.67;;;5.07;;
8088;SDS011;57635;49.194;12.104;2023-06-24T01:56:29;5.40;;;4.90;;
8088;SDS011;57635;49.194;12.104;2023-06-24T01:58:58;5.80;;;5.30;;
8088;SDS011;57635;49.194;12.104;2023-06-24T02:01:28;5.53;;;5.13;;
8088;SDS011;57635;49.194;12.104;2023-06-24T02:03:57;5.67;;;5.27;;
8088;SDS011;57635;49.194;12.104;2023-06-24T02:06:26;5.73;;;5.20;;
8088;SDS011;57635;49.194;12.104;2023-06-24T02:08:55;5.97;;;5.47;;
8088;SDS011;57635;49.194;12.104;2023-06-24T02:11:24;5.73;;;5.33;;
8088;SDS011;57635;49.194;12.104;2023-06-24T02:13:53;6.07;;;5.47;;
8088;SDS011;57635;49.194;12.104;2023-06-24T02:16:22;5.70;;;5.30;;
8088;SDS011;57635;49.194;12.104;2023-06-24T02:18:50;6.10;;;5.70;;
8088;SDS011;57635;49.194;12.104;2023-06-24T02:21:20;6.60;;;6.10;;
8088;SDS011;57635;49.194;12.104;2023-06-24T02:23:51;6.60;;;6.10;;
8088;SDS011;57635;49.194;12.104;2023-06-24T02:26:19;5.53;;;5.10;;
8088;SDS011;57635;49.194;12.104;2023-06-24T02:28:47;5.77;;;5.37;;
8088;SDS011;57635;49.194;12.104;2023-06-24T02:31:16;6.20;;;5.80;;
8088;SDS011;57635;49.194;12.104;2023-06-24T02:33:44;6.70;;;6.10;;
8088;SDS011;57635;49.194;12.104;2023-06-24T02:36:13;5.93;;;5.47;;
8088;SDS011;57635;49.194;12.104;2023-06-24T02:38:41;5.80;;;5.40;;
8088;SDS011;57635;49.194;12.104;2023-06-24T02:41:09;6.67;;;6.07;;
8088;SDS011;57635;49.194;12.104;2023-06-24T02:43:37;6.87;;;6.27;;
8088;SDS011;57635;49.194;12.104;2023-06-24T02:46:04;6.00;;;5.60;;
8088;SDS011;57635;49.194;12.104;2023-06-24T02:48:33;6.80;;;6.20;;
8088;SDS011;57635;49.194;12.104;2023-06-24T02:51:02;6.47;;;5.87;;
8088;SDS011;57635;49.194;12.104;2023-06-24T02:53:31;5.83;;;5.30;;
8088;SDS011;57635;49.194;12.104;2023-06-24T02:56:04;6.47;;;6.00;;
8088;SDS011;57635;49.194;12.104;2023-06-24T02:58:31;6.87;;;6.27;;
8088;SDS011;57635;49.194;12.104;2023-06-24T03:01:00;5.93;;;5.53;;
8088;SDS011;57635;49.194;12.104;2023-06-24T03:03:29;6.63;;;6.13;;
8088;SDS011;57635;49.194;12.104;2023-06-24T03:05:57;6.13;;;5.67;;
8088;SDS011;57635;49.194;12.104;2023-06-24T03:08:24;6.27;;;5.73;;
8088;SDS011;57635;49.194;12.104;2023-06-24T03:10:57;6.30;;;5.70;;
8088;SDS011;57635;49.194;12.104;2023-06-24T03:13:26;6.17;;;5.77;;
8088;SDS011;57635;49.194;12.104;2023-06-24T03:15:54;5.90;;;5.40;;
8088;SDS011;57635;49.194;12.104;2023-06-24T03:18:22;6.77;;;6.20;;
8088;SDS011;57635;49.194;12.104;2023-06-24T03:20:49;6.60;;;6.20;;
8088;SDS011;57635;49.194;12.104;2023-06-24T03:23:18;6.30;;;5.80;;
8088;SDS011;57635;49.194;12.104;2023-06-24T03:25:46;6.83;;;6.23;;
8088;SDS011;57635;49.194;12.104;2023-06-24T03:28:13;6.60;;;5.90;;
8088;SDS011;57635;49.194;12.104;2023-06-24T03:30:42;6.90;;;6.20;;
8088;SDS011;57635;49.194;12.104;2023-06-24T03:33:10;6.63;;;6.13;;
8088;SDS011;57635;49.194;12.104;2023-06-24T03:35:43;6.20;;;5.80;;
8088;SDS011;57635;49.194;12.104;2023-06-24T03:38:10;6.27;;;5.77;;
8088;SDS011;57635;49.194;12.104;2023-06-24T03:40:38;7.37;;;6.70;;
8088;SDS011;57635;49.194;12.104;2023-06-24T03:43:07;6.90;;;6.40;;
8088;SDS011;57635;49.194;12.104;2023-06-24T03:45:34;6.30;;;5.80;;
8088;SDS011;57635;49.194;12.104;2023-06-24T03:48:04;6.60;;;6.13;;
8088;SDS011;57635;49.194;12.104;2023-06-24T03:50:32;6.77;;;6.17;;
8088;SDS011;57635;49.194;12.104;2023-06-24T03:53:00;7.33;;;6.67;;
8088;SDS011;57635;49.194;12.104;2023-06-24T03:55:28;7.30;;;6.67;;
8088;SDS011;57635;49.194;12.104;2023-06-24T03:57:56;6.57;;;5.90;;
8088;SDS011;57635;49.194;12.104;2023-06-24T04:00:23;5.97;;;5.57;;
8088;SDS011;57635;49.194;12.104;2023-06-24T04:02:51;6.67;;;6.20;;
8088;SDS011;57635;49.194;12.104;2023-06-24T04:05:21;7.30;;;6.70;;
8088;SDS011;57635;49.194;12.104;2023-06-24T04:07:48;6.37;;;5.77;;
8088;SDS011;57635;49.194;12.104;2023-06-24T04:10:18;6.27;;;5.77;;
8088;SDS011;57635;49.194;12.104;2023-06-24T04:12:46;6.70;;;6.20;;
8088;SDS011;57635;49.194;12.104;2023-06-24T04:15:14;5.70;;;5.30;;
8088;SDS011;57635;49.194;12.104;2023-06-24T04:17:41;6.93;;;5.40;;
8088;SDS011;57635;49.194;12.104;2023-06-24T04:20:09;6.27;;;5.77;;
8088;SDS011;57635;49.194;12.104;2023-06-24T04:22:39;6.07;;;5.67;;
8088;SDS011;57635;49.194;12.104;2023-06-24T04:25:08;5.63;;;5.23;;
8088;SDS011;57635;49.194;12.104;2023-06-24T04:27:36;6.73;;;6.23;;
8088;SDS011;57635;49.194;12.104;2023-06-24T04:30:04;6.67;;;6.17;;
8088;SDS011;57635;49.194;12.104;2023-06-24T04:32:32;6.17;;;5.70;;
8088;SDS011;57635;49.194;12.104;2023-06-24T04:35:00;6.17;;;5.67;;
8088;SDS011;57635;49.194;12.104;2023-06-24T04:37:27;7.87;;;6.27;;
8088;SDS011;57635;49.194;12.104;2023-06-24T04:39:57;6.53;;;5.93;;
8088;SDS011;57635;49.194;12.104;2023-06-24T04:42:24;7.07;;;6.47;;
8088;SDS011;57635;49.194;12.104;2023-06-24T04:44:56;5.77;;;5.37;;
8088;SDS011;57635;49.194;12.104;2023-06-24T04:47:24;5.90;;;5.40;;
8088;SDS011;57635;49.194;12.104;2023-06-24T04:49:51;6.10;;;5.70;;
8088;SDS011;57635;49.194;12.104;2023-06-24T04:52:19;6.30;;;5.80;;
8088;SDS011;57635;49.194;12.104;2023-06-24T04:54:47;6.50;;;5.90;;
8088;SDS011;57635;49.194;12.104;2023-06-24T04:57:25;6.17;;;5.77;;
8088;SDS011;57635;49.194;12.104;2023-06-24T04:59:54;5.50;;;5.20;;
8088;SDS011;57635;49.194;12.104;2023-06-24T05:02:22;6.30;;;5.83;;
8088;SDS011;57635;49.194;12.104;2023-06-24T05:04:51;6.17;;;5.70;;
8088;SDS011;57635;49.194;12.104;2023-06-24T05:07:19;5.63;;;5.07;;
8088;SDS011;57635;49.194;12.104;2023-06-24T05:09:47;6.10;;;5.60;;
8088;SDS011;57635;49.194;12.104;2023-06-24T05:12:15;5.70;;;5.27;;
8088;SDS011;57635;49.194;12.104;2023-06-24T05:14:44;6.37;;;5.87;;
8088;SDS011;57635;49.194;12.104;2023-06-24T05:17:11;6.03;;;5.60;;
8088;SDS011;57635;49.194;12.104;2023-06-24T05:19:39;6.17;;;5.57;;
8088;SDS011;57635;49.194;12.104;2023-06-24T05:22:07;6.33;;;5.90;;
8088;SDS011;57635;49.194;12.104;2023-06-24T05:24:34;5.20;;;4.87;;
8088;SDS011;57635;49.194;12.104;2023-06-24T05:27:03;5.63;;;5.17;;
8088;SDS011;57635;49.194;12.104;2023-06-24T05:29:32;5.53;;;5.00;;
8088;SDS011;57635;49.194;12.104;2023-06-24T05:32:02;5.87;;;5.33;;
8088;SDS011;57635;49.194;12.104;2023-06-24T05:34:30;5.87;;;5.47;;
8088;SDS011;57635;49.194;12.104;2023-06-24T05:36:58;5.73;;;5.23;;
8088;SDS011;57635;49.194;12.104;2023-06-24T05:39:26;5.37;;;4.93;;
8088;SDS011;57635;49.194;12.104;2023-06-24T05:41:53;5.33;;;4.97;;
8088;SDS011;57635;49.194;12.104;2023-06-24T05:44:21;5.57;;;5.27;;
8088;SDS011;57635;49.194;12.104;2023-06-24T05:46:49;5.33;;;4.83;;
8088;SDS011;57635;49.194;12.104;2023-06-24T05:49:18;5.20;;;4.90;;
8088;SDS011;57635;49.194;12.104;2023-06-24T05:51:46;4.80;;;4.40;;
8088;SDS011;57635;49.194;12.104;2023-06-24T05:54:14;5.27;;;4.77;;
8088;SDS011;57635;49.194;12.104;2023-06-24T05:56:41;5.17;;;4.87;;
8088;SDS011;57635;49.194;12.104;2023-06-24T05:59:09;5.00;;;4.70;;
8088;SDS011;57635;49.194;12.104;2023-06-24T06:01:37;4.97;;;4.67;;
8088;SDS011;57635;49.194;12.104;2023-06-24T06:04:05;4.93;;;4.57;;
8088;SDS011;57635;49.194;12.104;2023-06-24T06:06:34;5.40;;;5.00;;
8088;SDS011;57635;49.194;12.104;2023-06-24T06:09:03;5.20;;;4.80;;
8088;SDS011;57635;49.194;12.104;2023-06-24T06:11:32;5.37;;;4.97;;
8088;SDS011;57635;49.194;12.104;2023-06-24T06:13:59;4.90;;;4.57;;
8088;SDS011;57635;49.194;12.104;2023-06-24T06:16:27;4.97;;;4.67;;
8088;SDS011;57635;49.194;12.104;2023-06-24T06:18:55;5.80;;;5.40;;
8088;SDS011;57635;49.194;12.104;2023-06-24T06:21:23;5.70;;;5.30;;
8088;SDS011;57635;49.194;12.104;2023-06-24T06:23:52;5.97;;;5.20;;
8088;SDS011;57635;49.194;12.104;2023-06-24T06:26:20;5.20;;;4.80;;
8088;SDS011;57635;49.194;12.104;2023-06-24T06:28:48;5.40;;;4.90;;
8088;SDS011;57635;49.194;12.104;2023-06-24T06:31:16;5.80;;;5.20;;
8088;SDS011;57635;49.194;12.104;2023-06-24T06:33:44;5.47;;;5.10;;
8088;SDS011;57635;49.194;12.104;2023-06-24T06:36:11;5.80;;;4.53;;
8088;SDS011;57635;49.194;12.104;2023-06-24T06:38:40;5.10;;;4.70;;
8088;SDS011;57635;49.194;12.104;2023-06-24T06:41:09;4.90;;;4.60;;
8088;SDS011;57635;49.194;12.104;2023-06-24T06:43:37;4.80;;;4.40;;
8088;SDS011;57635;49.194;12.104;2023-06-24T06:46:05;6.20;;;5.70;;
8088;SDS011;57635;49.194;12.104;2023-06-24T06:48:33;5.37;;;4.87;;
8088;SDS011;57635;49.194;12.104;2023-06-24T06:51:00;5.57;;;5.27;;
8088;SDS011;57635;49.194;12.104;2023-06-24T06:53:28;5.13;;;4.67;;
8088;SDS011;57635;49.194;12.104;2023-06-24T06:55:56;5.23;;;4.90;;
8088;SDS011;57635;49.194;12.104;2023-06-24T06:58:26;5.20;;;4.80;;
8088;SDS011;57635;49.194;12.104;2023-06-24T07:00:54;5.43;;;5.13;;
8088;SDS011;57635;49.194;12.104;2023-06-24T07:03:21;5.87;;;5.37;;
8088;SDS011;57635;49.194;12.104;2023-06-24T07:05:49;6.13;;;5.53;;
8088;SDS011;57635;49.194;12.104;2023-06-24T07:08:17;6.07;;;5.67;;
8088;SDS011;57635;49.194;12.104;2023-06-24T07:10:45;5.67;;;5.20;;
8088;SDS011;57635;49.194;12.104;2023-06-24T07:13:13;4.93;;;4.63;;
8088;SDS011;57635;49.194;12.104;2023-06-24T07:15:42;6.20;;;5.10;;
8088;SDS011;57635;49.194;12.104;2023-06-24T07:18:10;6.47;;;5.57;;
8088;SDS011;57635;49.194;12.104;2023-06-24T07:20:38;5.00;;;4.70;;
8088;SDS011;57635;49.194;12.104;2023-06-24T07:23:07;6.00;;;5.60;;
8088;SDS011;57635;49.194;12.104;2023-06-24T07:25:36;5.30;;;4.87;;
8088;SDS011;57635;49.194;12.104;2023-06-24T07:28:04;5.23;;;4.73;;
8088;SDS011;57635;49.194;12.104;2023-06-24T07:30:31;5.73;;;5.30;;
8088;SDS011;57635;49.194;12.104;2023-06-24T07:33:00;5.63;;;5.13;;
8088;SDS011;57635;49.194;12.104;2023-06-24T07:35:31;4.87;;;4.57;;
8088;SDS011;57635;49.194;12.104;2023-06-24T07:38:00;5.40;;;5.00;;
8088;SDS011;57635;49.194;12.104;2023-06-24T07:40:28;6.90;;;6.30;;
8088;SDS011;57635;49.194;12.104;2023-06-24T07:42:55;5.47;;;5.07;;
8088;SDS011;57635;49.194;12.104;2023-06-24T07:45:23;5.27;;;4.97;;
8088;SDS011;57635;49.194;12.104;2023-06-24T07:47:51;4.90;;;4.60;;
8088;SDS011;57635;49.194;12.104;2023-06-24T07:50:20;5.93;;;5.07;;
8088;SDS011;57635;49.194;12.104;2023-06-24T07:52:48;5.53;;;5.23;;
8088;SDS011;57635;49.194;12.104;2023-06-24T07:55:16;5.77;;;5.33;;
8088;SDS011;57635;49.194;12.104;2023-06-24T07:57:44;5.67;;;5.23;;
8088;SDS011;57635;49.194;12.104;2023-06-24T08:00:13;5.70;;;5.20;;
8088;SDS011;57635;49.194;12.104;2023-06-24T08:02:41;5.90;;;5.40;;
8088;SDS011;57635;49.194;12.104;2023-06-24T08:05:17;6.07;;;5.57;;
8088;SDS011;57635;49.194;12.104;2023-06-24T08:07:48;4.60;;;4.30;;
8088;SDS011;57635;49.194;12.104;2023-06-24T08:10:16;4.83;;;4.53;;
8088;SDS011;57635;49.194;12.104;2023-06-24T08:12:43;6.73;;;6.23;;
8088;SDS011;57635;49.194;12.104;2023-06-24T08:15:11;5.53;;;5.13;;
8088;SDS011;57635;49.194;12.104;2023-06-24T08:17:39;5.43;;;5.03;;
8088;SDS011;57635;49.194;12.104;2023-06-24T08:20:08;4.43;;;4.07;;
8088;SDS011;57635;49.194;12.104;2023-06-24T08:22:37;6.27;;;5.77;;
8088;SDS011;57635;49.194;12.104;2023-06-24T08:25:06;4.93;;;4.63;;
8088;SDS011;57635;49.194;12.104;2023-06-24T08:27:34;4.17;;;3.87;;
8088;SDS011;57635;49.194;12.104;2023-06-24T08:30:03;4.77;;;4.47;;
8088;SDS011;57635;49.194;12.104;2023-06-24T08:32:31;4.80;;;4.33;;
8088;SDS011;57635;49.194;12.104;2023-06-24T08:35:00;4.27;;;3.93;;
8088;SDS011;57635;49.194;12.104;2023-06-24T08:37:27;4.90;;;4.60;;
8088;SDS011;57635;49.194;12.104;2023-06-24T08:39:55;4.40;;;4.10;;
8088;SDS011;57635;49.194;12.104;2023-06-24T08:42:24;4.00;;;3.80;;
8088;SDS011;57635;49.194;12.104;2023-06-24T08:44:52;4.50;;;4.20;;
8088;SDS011;57635;49.194;12.104;2023-06-24T08:47:19;4.30;;;4.00;;
8088;SDS011;57635;49.194;12.104;2023-06-24T08:49:47;5.33;;;3.93;;
8088;SDS011;57635;49.194;12.104;2023-06-24T08:52:16;4.60;;;4.30;;
8088;SDS011;57635;49.194;12.104;2023-06-24T08:54:46;3.93;;;3.73;;
8088;SDS011;57635;49.194;12.104;2023-06-24T08:57:15;3.43;;;3.20;;
8088;SDS011;57635;49.194;12.104;2023-06-24T08:59:45;3.87;;;3.63;;
8088;SDS011;57635;49.194;12.104;2023-06-24T09:02:13;4.43;;;4.03;;
8088;SDS011;57635;49.194;12.104;2023-06-24T09:04:41;4.27;;;3.90;;
8088;SDS011;57635;49.194;12.104;2023-06-24T09:07:09;3.60;;;3.40;;
8088;SDS011;57635;49.194;12.104;2023-06-24T09:09:41;4.20;;;3.90;;
8088;SDS011;57635;49.194;12.104;2023-06-24T09:12:10;3.97;;;3.77;;
8088;SDS011;57635;49.194;12.104;2023-06-24T09:14:41;3.70;;;3.50;;
8088;SDS011;57635;49.194;12.104;2023-06-24T09:17:10;3.90;;;3.60;;
8088;SDS011;57635;49.194;12.104;2023-06-24T09:19:37;4.50;;;3.83;;
8088;SDS011;57635;49.194;12.104;2023-06-24T09:22:06;3.50;;;3.30;;
8088;SDS011;57635;49.194;12.104;2023-06-24T09:24:34;4.23;;;3.93;;
8088;SDS011;57635;49.194;12.104;2023-06-24T09:27:03;3.97;;;3.77;;
8088;SDS011;57635;49.194;12.104;2023-06-24T09:29:31;3.60;;;3.40;;
8088;SDS011;57635;49.194;12.104;2023-06-24T09:32:03;3.83;;;3.60;;
8088;SDS011;57635;49.194;12.104;2023-06-24T09:34:33;4.13;;;3.90;;
8088;SDS011;57635;49.194;12.104;2023-06-24T09:37:01;3.80;;;3.50;;
8088;SDS011;57635;49.194;12.104;2023-06-24T09:39:34;3.40;;;3.20;;
8088;SDS011;57635;49.194;12.104;2023-06-24T09:42:03;3.37;;;3.17;;
8088;SDS011;57635;49.194;12.104;2023-06-24T09:44:32;3.50;;;3.30;;
8088;SDS011;57635;49.194;12.104;2023-06-24T09:47:00;3.17;;;3.03;;
8088;SDS011;57635;49.194;12.104;2023-06-24T09:49:28;3.77;;;3.50;;
8088;SDS011;57635;49.194;12.104;2023-06-24T09:51:58;7.67;;;5.00;;
8088;SDS011;57635;49.194;12.104;2023-06-24T09:54:26;3.63;;;3.43;;
8088;SDS011;57635;49.194;12.104;2023-06-24T09:57:01;3.70;;;3.50;;
8088;SDS011;57635;49.194;12.104;2023-06-24T09:59:30;3.40;;;3.20;;
8088;SDS011;57635;49.194;12.104;2023-06-24T10:01:59;3.57;;;3.37;;
8088;SDS011;57635;49.194;12.104;2023-06-24T10:04:27;4.33;;;3.40;;
8088;SDS011;57635;49.194;12.104;2023-06-24T10:06:55;3.47;;;3.27;;
8088;SDS011;57635;49.194;12.104;2023-06-24T10:09:24;3.50;;;3.40;;
8088;SDS011;57635;49.194;12.104;2023-06-24T10:11:52;4.63;;;3.77;;
8088;SDS011;57635;49.194;12.104;2023-06-24T10:14:19;3.60;;;3.40;;
8088;SDS011;57635;49.194;12.104;2023-06-24T10:16:47;3.60;;;3.30;;
8088;SDS011;57635;49.194;12.104;2023-06-24T10:19:18;3.70;;;3.40;;
8088;SDS011;57635;49.194;12.104;2023-06-24T10:21:49;3.90;;;3.60;;
8088;SDS011;57635;49.194;12.104;2023-06-24T10:24:31;5.43;;;3.77;;
8088;SDS011;57635;49.194;12.104;2023-06-24T10:27:01;3.60;;;3.30;;
8088;SDS011;57635;49.194;12.104;2023-06-24T10:29:33;3.57;;;3.37;;
8088;SDS011;57635;49.194;12.104;2023-06-24T10:32:05;4.67;;;3.23;;
8088;SDS011;57635;49.194;12.104;2023-06-24T10:34:34;3.30;;;3.00;;
8088;SDS011;57635;49.194;12.104;2023-06-24T10:37:12;3.77;;;3.47;;
8088;SDS011;57635;49.194;12.104;2023-06-24T10:39:49;3.40;;;3.10;;
8088;SDS011;57635;49.194;12.104;2023-06-24T10:42:36;3.30;;;3.10;;
8088;SDS011;57635;49.194;12.104;2023-06-24T10:45:15;3.83;;;3.53;;
8088;SDS011;57635;49.194;12.104;2023-06-24T10:47:45;3.23;;;3.13;;
8088;SDS011;57635;49.194;12.104;2023-06-24T10:50:15;3.37;;;3.17;;
8088;SDS011;57635;49.194;12.104;2023-06-24T10:52:43;3.23;;;3.03;;
8088;SDS011;57635;49.194;12.104;2023-06-24T10:55:14;3.50;;;3.30;;
8088;SDS011;57635;49.194;12.104;2023-06-24T10:57:43;3.40;;;3.20;;
8088;SDS011;57635;49.194;12.104;2023-06-24T11:00:11;3.83;;;3.53;;
8088;SDS011;57635;49.194;12.104;2023-06-24T11:02:39;3.80;;;2.90;;
8088;SDS011;57635;49.194;12.104;2023-06-24T11:05:07;2.87;;;2.77;;
8088;SDS011;57635;49.194;12.104;2023-06-24T11:07:36;2.93;;;2.80;;
8088;SDS011;57635;49.194;12.104;2023-06-24T11:10:05;3.47;;;3.27;;
8088;SDS011;57635;49.194;12.104;2023-06-24T11:12:39;3.23;;;2.93;;
8088;SDS011;57635;49.194;12.104;2023-06-24T11:15:08;3.30;;;3.10;;
8088;SDS011;57635;49.194;12.104;2023-06-24T11:17:36;3.70;;;3.40;;
8088;SDS011;57635;49.194;12.104;2023-06-24T11:20:06;2.97;;;2.83;;
8088;SDS011;57635;49.194;12.104;2023-06-24T11:22:34;3.63;;;3.33;;
8088;SDS011;57635;49.194;12.104;2023-06-24T11:25:02;3.93;;;2.90;;
8088;SDS011;57635;49.194;12.104;2023-06-24T11:27:30;3.83;;;3.53;;
8088;SDS011;57635;49.194;12.104;2023-06-24T11:30:00;3.03;;;2.83;;
8088;SDS011;57635;49.194;12.104;2023-06-24T11:32:35;3.53;;;3.20;;
8088;SDS011;57635;49.194;12.104;2023-06-24T11:35:03;3.57;;;3.37;;
8088;SDS011;57635;49.194;12.104;2023-06-24T11:37:32;3.87;;;3.57;;
8088;SDS011;57635;49.194;12.104;2023-06-24T11:40:00;3.77;;;3.57;;
8088;SDS011;57635;49.194;12.104;2023-06-24T11:42:31;3.37;;;3.17;;
8088;SDS011;57635;49.194;12.104;2023-06-24T11:45:00;3.37;;;3.00;;
8088;SDS011;57635;49.194;12.104;2023-06-24T11:47:30;3.27;;;3.07;;
8088;SDS011;57635;49.194;12.104;2023-06-24T11:49:59;3.27;;;3.07;;
8088;SDS011;57635;49.194;12.104;2023-06-24T11:52:32;3.80;;;3.60;;
8088;SDS011;57635;49.194;12.104;2023-06-24T11:55:00;2.87;;;2.77;;
8088;SDS011;57635;49.194;12.104;2023-06-24T11:57:46;3.33;;;3.13;;
8088;SDS011;57635;49.194;12.104;2023-06-24T12:00:20;3.40;;;3.20;;
8088;SDS011;57635;49.194;12.104;2023-06-24T12:02:50;4.03;;;3.77;;
8088;SDS011;57635;49.194;12.104;2023-06-24T12:05:21;3.73;;;3.53;;
8088;SDS011;57635;49.194;12.104;2023-06-24T12:07:54;2.90;;;2.70;;
8088;SDS011;57635;49.194;12.104;2023-06-24T12:10:23;3.37;;;3.10;;
8088;SDS011;57635;49.194;12.104;2023-06-24T12:12:50;3.37;;;3.17;;
8088;SDS011;57635;49.194;12.104;2023-06-24T12:15:18;3.07;;;2.90;;
8088;SDS011;57635;49.194;12.104;2023-06-24T12:17:48;3.77;;;3.47;;
8088;SDS011;57635;49.194;12.104;2023-06-24T12:20:16;3.43;;;3.23;;
8088;SDS011;57635;49.194;12.104;2023-06-24T12:22:44;3.37;;;3.10;;
8088;SDS011;57635;49.194;12.104;2023-06-24T12:25:12;3.53;;;3.20;;
8088;SDS011;57635;49.194;12.104;2023-06-24T12:27:39;3.43;;;3.23;;
8088;SDS011;57635;49.194;12.104;2023-06-24T12:30:08;3.73;;;3.43;;
8088;SDS011;57635;49.194;12.104;2023-06-24T12:32:37;3.27;;;3.13;;
8088;SDS011;57635;49.194;12.104;2023-06-24T12:35:07;3.20;;;3.00;;
8088;SDS011;57635;49.194;12.104;2023-06-24T12:37:37;3.40;;;3.07;;
8088;SDS011;57635;49.194;12.104;2023-06-24T12:40:05;2.97;;;2.87;;
8088;SDS011;57635;49.194;12.104;2023-06-24T12:42:33;3.27;;;3.07;;
8088;SDS011;57635;49.194;12.104;2023-06-24T12:45:01;3.60;;;3.37;;
8088;SDS011;57635;49.194;12.104;2023-06-24T12:47:28;3.83;;;3.50;;
8088;SDS011;57635;49.194;12.104;2023-06-24T12:49:56;3.20;;;3.00;;
8088;SDS011;57635;49.194;12.104;2023-06-24T12:52:25;3.27;;;3.07;;
8088;SDS011;57635;49.194;12.104;2023-06-24T12:54:53;3.53;;;3.23;;
8088;SDS011;57635;49.194;12.104;2023-06-24T12:57:20;3.27;;;3.07;;
8088;SDS011;57635;49.194;12.104;2023-06-24T12:59:49;3.77;;;3.40;;
8088;SDS011;57635;49.194;12.104;2023-06-24T13:02:16;3.10;;;2.90;;
8088;SDS011;57635;49.194;12.104;2023-06-24T13:04:51;3.30;;;3.00;;
8088;SDS011;57635;49.194;12.104;2023-06-24T13:07:18;3.23;;;3.03;;
8088;SDS011;57635;49.194;12.104;2023-06-24T13:09:47;4.57;;;2.80;;
8088;SDS011;57635;49.194;12.104;2023-06-24T13:12:15;2.73;;;2.63;;
8088;SDS011;57635;49.194;12.104;2023-06-24T13:14:43;2.97;;;2.77;;
8088;SDS011;57635;49.194;12.104;2023-06-24T13:17:10;2.90;;;2.80;;
8088;SDS011;57635;49.194;12.104;2023-06-24T13:19:41;2.70;;;2.60;;
8088;SDS011;57635;49.194;12.104;2023-06-24T13:22:09;3.00;;;2.80;;
8088;SDS011;57635;49.194;12.104;2023-06-24T13:24:37;3.20;;;3.00;;
8088;SDS011;57635;49.194;12.104;2023-06-24T13:27:06;3.37;;;3.07;;
8088;SDS011;57635;49.194;12.104;2023-06-24T13:29:34;3.33;;;3.13;;
8088;SDS011;57635;49.194;12.104;2023-06-24T13:32:02;3.33;;;3.23;;
8088;SDS011;57635;49.194;12.104;2023-06-24T13:34:30;3.20;;;3.00;;
8088;SDS011;57635;49.194;12.104;2023-06-24T13:36:58;2.93;;;2.80;;
8088;SDS011;57635;49.194;12.104;2023-06-24T13:39:25;3.10;;;2.90;;
8088;SDS011;57635;49.194;12.104;2023-06-24T13:41:55;3.00;;;2.90;;
8088;SDS011;57635;49.194;12.104;2023-06-24T13:44:25;3.40;;;3.20;;
8088;SDS011;57635;49.194;12.104;2023-06-24T13:46:52;3.03;;;2.87;;
8088;SDS011;57635;49.194;12.104;2023-06-24T13:49:20;3.37;;;3.17;;
8088;SDS011;57635;49.194;12.104;2023-06-24T13:51:48;3.40;;;3.15;;
8088;SDS011;57635;49.194;12.104;2023-06-24T13:54:16;3.03;;;2.83;;
8088;SDS011;57635;49.194;12.104;2023-06-24T13:56:43;5.72;;;3.63;;
8088;SDS011;57635;49.194;12.104;2023-06-24T13:59:11;3.10;;;3.00;;
8088;SDS011;57635;49.194;12.104;2023-06-24T14:01:40;4.13;;;3.25;;
8088;SDS011;57635;49.194;12.104;2023-06-24T14:04:08;3.85;;;3.45;;
8088;SDS011;57635;49.194;12.104;2023-06-24T14:06:35;3.78;;;3.20;;
8088;SDS011;57635;49.194;12.104;2023-06-24T14:09:03;3.50;;;3.30;;
8088;SDS011;57635;49.194;12.104;2023-06-24T14:11:31;3.07;;;2.97;;
8088;SDS011;57635;49.194;12.104;2023-06-24T14:13:58;3.73;;;3.43;;
8088;SDS011;57635;49.194;12.104;2023-06-24T14:16:26;3.40;;;3.20;;
8088;SDS011;57635;49.194;12.104;2023-06-24T14:18:55;3.50;;;3.30;;
8088;SDS011;57635;49.194;12.104;2023-06-24T14:21:23;3.60;;;3.30;;
8088;SDS011;57635;49.194;12.104;2023-06-24T14:23:51;3.67;;;3.42;;
8088;SDS011;57635;49.194;12.104;2023-06-24T14:26:22;3.80;;;3.60;;
8088;SDS011;57635;49.194;12.104;2023-06-24T14:28:54;4.95;;;4.65;;
8088;SDS011;57635;49.194;12.104;2023-06-24T14:31:22;3.72;;;3.42;;
8088;SDS011;57635;49.194;12.104;2023-06-24T14:33:49;4.10;;;3.80;;
8088;SDS011;57635;49.194;12.104;2023-06-24T14:36:19;3.30;;;3.10;;
8088;SDS011;57635;49.194;12.104;2023-06-24T14:38:46;4.40;;;4.10;;
8088;SDS011;57635;49.194;12.104;2023-06-24T14:41:14;4.15;;;3.92;;
8088;SDS011;57635;49.194;12.104;2023-06-24T14:43:42;4.75;;;4.45;;
8088;SDS011;57635;49.194;12.104;2023-06-24T14:46:09;4.22;;;4.03;;
8088;SDS011;57635;49.194;12.104;2023-06-24T14:48:37;4.13;;;3.90;;
8088;SDS011;57635;49.194;12.104;2023-06-24T14:51:04;4.00;;;3.80;;
8088;SDS011;57635;49.194;12.104;2023-06-24T14:53:34;3.77;;;3.57;;
8088;SDS011;57635;49.194;12.104;2023-06-24T14:56:02;4.73;;;4.37;;
8088;SDS011;57635;49.194;12.104;2023-06-24T14:58:29;4.30;;;4.00;;
8088;SDS011;57635;49.194;12.104;2023-06-24T15:00:57;3.53;;;3.33;;